sensor_id;sensor_type;location;lat;lon;timestamp;pressure;altitude;pressure_sealevel;temperature;humidity
60258;BME280;46115;44.484;11.314;2023-05-19T00:03:51;100556.16;;;14.12;97.10
60258;BME280;46115;44.484;11.314;2023-05-19T00:07:58;100536.41;;;13.87;97.65
60258;BME280;46115;44.484;11.314;2023-05-19T00:12:01;100561.66;;;14.09;97.54
60258;BME280;46115;44.484;11.314;2023-05-19T00:16:06;100565.66;;;14.01;98.98
60258;BME280;46115;44.484;11.314;2023-05-19T00:20:09;100557.47;;;14.19;98.00
60258;BME280;46115;44.484;11.314;2023-05-19T00:24:12;100543.31;;;14.18;96.47
60258;BME280;46115;44.484;11.314;2023-05-19T00:28:15;100548.75;;;14.31;95.37
60258;BME280;46115;44.484;11.314;2023-05-19T00:32:19;100529.66;;;14.24;96.65
60258;BME280;46115;44.484;11.314;2023-05-19T00:36:21;100554.06;;;14.17;99.17
60258;BME280;46115;44.484;11.314;2023-05-19T00:40:24;100539.44;;;14.24;97.05
60258;BME280;46115;44.484;11.314;2023-05-19T00:44:28;100539.66;;;13.92;97.99
60258;BME280;46115;44.484;11.314;2023-05-19T00:48:32;100535.38;;;13.90;98.50
60258;BME280;46115;44.484;11.314;2023-05-19T00:52:34;100522.38;;;13.99;98.26
60258;BME280;46115;44.484;11.314;2023-05-19T00:56:37;100512.97;;;13.80;99.29
60258;BME280;46115;44.484;11.314;2023-05-19T01:00:40;100525.97;;;13.84;99.77
60258;BME280;46115;44.484;11.314;2023-05-19T01:04:46;100527.28;;;14.05;98.77
60258;BME280;46115;44.484;11.314;2023-05-19T01:08:50;100509.53;;;13.78;100.00
60258;BME280;46115;44.484;11.314;2023-05-19T01:12:53;100528.81;;;13.95;98.86
60258;BME280;46115;44.484;11.314;2023-05-19T01:17:00;100528.34;;;13.89;99.89
60258;BME280;46115;44.484;11.314;2023-05-19T01:21:21;100530.34;;;13.99;100.00
60258;BME280;46115;44.484;11.314;2023-05-19T01:30:25;100521.13;;;13.91;100.00
60258;BME280;46115;44.484;11.314;2023-05-19T01:34:29;100518.28;;;13.94;100.00
60258;BME280;46115;44.484;11.314;2023-05-19T01:38:33;100489.34;;;13.75;100.00
60258;BME280;46115;44.484;11.314;2023-05-19T01:42:38;100519.25;;;13.93;100.00
60258;BME280;46115;44.484;11.314;2023-05-19T01:46:42;100519.88;;;13.82;100.00
60258;BME280;46115;44.484;11.314;2023-05-19T01:50:46;100514.84;;;14.06;100.00
60258;BME280;46115;44.484;11.314;2023-05-19T01:54:49;100522.84;;;13.92;100.00
60258;BME280;46115;44.484;11.314;2023-05-19T01:58:58;100531.28;;;13.84;100.00
60258;BME280;46115;44.484;11.314;2023-05-19T02:03:16;100527.09;;;13.66;100.00
60258;BME280;46115;44.484;11.314;2023-05-19T02:07:25;100528.41;;;13.87;100.00
60258;BME280;46115;44.484;11.314;2023-05-19T02:11:35;100526.16;;;13.95;100.00
60258;BME280;46115;44.484;11.314;2023-05-19T02:15:40;100523.72;;;13.92;100.00
60258;BME280;46115;44.484;11.314;2023-05-19T02:19:45;100527.94;;;13.81;100.00
60258;BME280;46115;44.484;11.314;2023-05-19T02:23:49;100522.72;;;13.79;100.00
60258;BME280;46115;44.484;11.314;2023-05-19T02:27:54;100522.81;;;13.63;100.00
60258;BME280;46115;44.484;11.314;2023-05-19T02:31:59;100525.84;;;13.86;99.26
60258;BME280;46115;44.484;11.314;2023-05-19T02:36:03;100519.50;;;13.60;100.00
60258;BME280;46115;44.484;11.314;2023-05-19T02:40:07;100513.34;;;13.59;100.00
60258;BME280;46115;44.484;11.314;2023-05-19T02:44:10;100514.75;;;13.65;100.00
60258;BME280;46115;44.484;11.314;2023-05-19T02:48:12;100513.88;;;13.50;100.00
60258;BME280;46115;44.484;11.314;2023-05-19T02:52:16;100515.66;;;13.50;100.00
60258;BME280;46115;44.484;11.314;2023-05-19T02:56:19;100510.44;;;13.48;100.00
60258;BME280;46115;44.484;11.314;2023-05-19T03:00:21;100518.47;;;13.62;100.00
60258;BME280;46115;44.484;11.314;2023-05-19T03:04:24;100513.75;;;13.37;100.00
60258;BME280;46115;44.484;11.314;2023-05-19T03:08:28;100506.94;;;13.33;100.00
60258;BME280;46115;44.484;11.314;2023-05-19T03:12:30;100514.06;;;13.47;100.00
60258;BME280;46115;44.484;11.314;2023-05-19T03:16:33;100517.22;;;13.54;100.00
60258;BME280;46115;44.484;11.314;2023-05-19T03:20:36;100514.53;;;13.39;100.00
60258;BME280;46115;44.484;11.314;2023-05-19T03:24:40;100521.97;;;13.63;100.00
60258;BME280;46115;44.484;11.314;2023-05-19T03:28:42;100513.94;;;13.34;100.00
60258;BME280;46115;44.484;11.314;2023-05-19T03:32:45;100519.88;;;13.54;100.00
60258;BME280;46115;44.484;11.314;2023-05-19T03:36:47;100523.63;;;13.50;100.00
60258;BME280;46115;44.484;11.314;2023-05-19T03:40:52;100527.53;;;13.44;100.00
60258;BME280;46115;44.484;11.314;2023-05-19T03:44:55;100525.16;;;13.39;100.00
60258;BME280;46115;44.484;11.314;2023-05-19T03:48:57;100514.50;;;13.09;100.00
60258;BME280;46115;44.484;11.314;2023-05-19T03:53:23;100533.84;;;13.27;100.00
60258;BME280;46115;44.484;11.314;2023-05-19T03:57:28;100537.34;;;13.28;100.00
60258;BME280;46115;44.484;11.314;2023-05-19T04:01:31;100529.50;;;13.26;100.00
60258;BME280;46115;44.484;11.314;2023-05-19T04:05:39;100532.31;;;13.23;100.00
60258;BME280;46115;44.484;11.314;2023-05-19T04:09:42;100542.59;;;13.43;100.00
60258;BME280;46115;44.484;11.314;2023-05-19T04:13:46;100544.06;;;13.19;100.00
60258;BME280;46115;44.484;11.314;2023-05-19T04:17:56;100552.09;;;13.18;100.00
60258;BME280;46115;44.484;11.314;2023-05-19T04:21:59;100555.09;;;13.27;100.00
60258;BME280;46115;44.484;11.314;2023-05-19T04:26:01;100552.03;;;13.19;100.00
60258;BME280;46115;44.484;11.314;2023-05-19T04:30:06;100544.66;;;13.24;100.00
60258;BME280;46115;44.484;11.314;2023-05-19T04:34:09;100543.28;;;13.17;100.00
60258;BME280;46115;44.484;11.314;2023-05-19T04:38:11;100552.69;;;13.23;100.00
60258;BME280;46115;44.484;11.314;2023-05-19T04:42:19;100561.91;;;13.16;100.00
60258;BME280;46115;44.484;11.314;2023-05-19T04:46:25;100559.19;;;13.17;100.00
60258;BME280;46115;44.484;11.314;2023-05-19T04:50:29;100559.19;;;13.33;100.00
60258;BME280;46115;44.484;11.314;2023-05-19T04:54:33;100552.69;;;13.07;100.00
60258;BME280;46115;44.484;11.314;2023-05-19T04:58:36;100565.88;;;13.24;100.00
60258;BME280;46115;44.484;11.314;2023-05-19T05:02:40;100564.47;;;13.33;100.00
60258;BME280;46115;44.484;11.314;2023-05-19T05:06:43;100572.91;;;13.25;100.00
60258;BME280;46115;44.484;11.314;2023-05-19T05:10:49;100538.38;;;13.09;100.00
60258;BME280;46115;44.484;11.314;2023-05-19T05:14:52;100576.69;;;13.21;100.00
60258;BME280;46115;44.484;11.314;2023-05-19T05:18:57;100571.28;;;13.23;100.00
60258;BME280;46115;44.484;11.314;2023-05-19T05:23:00;100573.47;;;13.15;100.00
60258;BME280;46115;44.484;11.314;2023-05-19T05:27:04;100572.91;;;13.25;100.00
60258;BME280;46115;44.484;11.314;2023-05-19T05:31:08;100576.50;;;13.24;100.00
60258;BME280;46115;44.484;11.314;2023-05-19T05:35:12;100581.34;;;13.32;100.00
60258;BME280;46115;44.484;11.314;2023-05-19T05:39:15;100573.22;;;13.35;100.00
60258;BME280;46115;44.484;11.314;2023-05-19T05:43:19;100584.41;;;13.40;100.00
60258;BME280;46115;44.484;11.314;2023-05-19T05:47:27;100561.72;;;13.20;100.00
60258;BME280;46115;44.484;11.314;2023-05-19T05:51:32;100591.34;;;13.42;100.00
60258;BME280;46115;44.484;11.314;2023-05-19T05:55:35;100586.34;;;13.22;100.00
60258;BME280;46115;44.484;11.314;2023-05-19T05:59:39;100589.69;;;13.26;100.00
60258;BME280;46115;44.484;11.314;2023-05-19T06:03:42;100590.22;;;13.47;100.00
60258;BME280;46115;44.484;11.314;2023-05-19T06:07:49;100593.41;;;13.37;100.00
60258;BME280;46115;44.484;11.314;2023-05-19T06:11:57;100590.66;;;13.39;100.00
60258;BME280;46115;44.484;11.314;2023-05-19T06:16:02;100603.66;;;13.43;100.00
60258;BME280;46115;44.484;11.314;2023-05-19T06:20:11;100606.34;;;13.43;100.00
60258;BME280;46115;44.484;11.314;2023-05-19T06:24:15;100606.59;;;13.39;100.00
60258;BME280;46115;44.484;11.314;2023-05-19T06:28:17;100613.34;;;13.74;100.00
60258;BME280;46115;44.484;11.314;2023-05-19T06:32:19;100602.53;;;13.48;100.00
60258;BME280;46115;44.484;11.314;2023-05-19T06:36:22;100607.91;;;13.62;100.00
60258;BME280;46115;44.484;11.314;2023-05-19T06:40:27;100611.72;;;13.72;100.00
60258;BME280;46115;44.484;11.314;2023-05-19T06:44:29;100597.34;;;13.90;100.00
60258;BME280;46115;44.484;11.314;2023-05-19T06:48:32;100611.97;;;13.97;100.00
60258;BME280;46115;44.484;11.314;2023-05-19T06:52:34;100608.75;;;13.92;100.00
60258;BME280;46115;44.484;11.314;2023-05-19T06:56:38;100608.13;;;14.46;100.00
60258;BME280;46115;44.484;11.314;2023-05-19T07:00:41;100612.69;;;14.99;100.00
60258;BME280;46115;44.484;11.314;2023-05-19T07:04:46;100620.72;;;15.12;100.00
60258;BME280;46115;44.484;11.314;2023-05-19T07:08:50;100612.59;;;15.01;100.00
60258;BME280;46115;44.484;11.314;2023-05-19T07:12:54;100612.22;;;15.19;100.00
60258;BME280;46115;44.484;11.314;2023-05-19T07:17:00;100611.31;;;15.33;100.00
60258;BME280;46115;44.484;11.314;2023-05-19T07:21:03;100611.44;;;15.32;100.00
60258;BME280;46115;44.484;11.314;2023-05-19T07:25:06;100624.13;;;15.41;100.00
60258;BME280;46115;44.484;11.314;2023-05-19T07:29:10;100615.06;;;15.31;100.00
60258;BME280;46115;44.484;11.314;2023-05-19T07:33:13;100617.66;;;15.57;100.00
60258;BME280;46115;44.484;11.314;2023-05-19T07:37:15;100610.44;;;14.93;100.00
60258;BME280;46115;44.484;11.314;2023-05-19T07:41:17;100619.66;;;15.41;100.00
60258;BME280;46115;44.484;11.314;2023-05-19T07:45:21;100612.66;;;15.53;100.00
60258;BME280;46115;44.484;11.314;2023-05-19T07:49:23;100616.34;;;15.77;98.78
60258;BME280;46115;44.484;11.314;2023-05-19T07:53:26;100618.91;;;15.66;100.00
60258;BME280;46115;44.484;11.314;2023-05-19T07:57:28;100621.72;;;15.23;100.00
60258;BME280;46115;44.484;11.314;2023-05-19T08:01:33;100615.06;;;15.70;100.00
60258;BME280;46115;44.484;11.314;2023-05-19T08:05:36;100610.06;;;15.66;100.00
60258;BME280;46115;44.484;11.314;2023-05-19T08:09:38;100609.13;;;15.52;100.00
60258;BME280;46115;44.484;11.314;2023-05-19T08:13:40;100606.88;;;15.19;100.00
60258;BME280;46115;44.484;11.314;2023-05-19T08:17:44;100598.88;;;15.46;100.00
60258;BME280;46115;44.484;11.314;2023-05-19T08:21:47;100604.72;;;15.91;100.00
60258;BME280;46115;44.484;11.314;2023-05-19T08:25:49;100612.31;;;15.57;100.00
60258;BME280;46115;44.484;11.314;2023-05-19T08:29:52;100599.28;;;15.80;100.00
60258;BME280;46115;44.484;11.314;2023-05-19T08:33:56;100610.16;;;15.64;100.00
60258;BME280;46115;44.484;11.314;2023-05-19T08:37:59;100601.09;;;15.67;100.00
60258;BME280;46115;44.484;11.314;2023-05-19T08:42:01;100611.13;;;15.63;100.00
60258;BME280;46115;44.484;11.314;2023-05-19T08:46:03;100615.78;;;15.59;100.00
60258;BME280;46115;44.484;11.314;2023-05-19T08:50:10;100626.13;;;15.10;100.00
60258;BME280;46115;44.484;11.314;2023-05-19T08:54:15;100618.97;;;14.84;100.00
60258;BME280;46115;44.484;11.314;2023-05-19T08:58:18;100613.28;;;15.56;100.00
60258;BME280;46115;44.484;11.314;2023-05-19T09:02:21;100617.94;;;15.13;100.00
60258;BME280;46115;44.484;11.314;2023-05-19T09:06:26;100620.69;;;14.85;100.00
60258;BME280;46115;44.484;11.314;2023-05-19T09:10:32;100619.16;;;15.22;100.00
60258;BME280;46115;44.484;11.314;2023-05-19T09:14:35;100591.19;;;15.29;100.00
60258;BME280;46115;44.484;11.314;2023-05-19T09:18:38;100605.63;;;14.57;100.00
60258;BME280;46115;44.484;11.314;2023-05-19T09:22:43;100617.72;;;15.04;100.00
60258;BME280;46115;44.484;11.314;2023-05-19T09:26:47;100606.75;;;15.35;100.00
60258;BME280;46115;44.484;11.314;2023-05-19T09:30:57;100606.34;;;15.41;100.00
60258;BME280;46115;44.484;11.314;2023-05-19T09:35:01;100596.31;;;15.72;100.00
60258;BME280;46115;44.484;11.314;2023-05-19T09:39:12;100599.94;;;15.83;100.00
60258;BME280;46115;44.484;11.314;2023-05-19T09:43:16;100601.63;;;15.84;100.00
60258;BME280;46115;44.484;11.314;2023-05-19T09:47:18;100595.25;;;15.62;100.00
60258;BME280;46115;44.484;11.314;2023-05-19T09:51:20;100602.94;;;15.39;100.00
60258;BME280;46115;44.484;11.314;2023-05-19T09:55:27;100608.75;;;15.05;100.00
60258;BME280;46115;44.484;11.314;2023-05-19T09:59:30;100568.63;;;15.08;100.00
60258;BME280;46115;44.484;11.314;2023-05-19T10:03:33;100599.63;;;15.36;100.00
60258;BME280;46115;44.484;11.314;2023-05-19T10:07:35;100608.59;;;15.20;100.00
60258;BME280;46115;44.484;11.314;2023-05-19T10:11:40;100589.66;;;15.25;100.00
60258;BME280;46115;44.484;11.314;2023-05-19T10:15:43;100593.75;;;15.43;100.00
60258;BME280;46115;44.484;11.314;2023-05-19T10:19:49;100585.34;;;15.37;100.00
60258;BME280;46115;44.484;11.314;2023-05-19T10:23:54;100593.78;;;15.56;100.00
60258;BME280;46115;44.484;11.314;2023-05-19T10:28:01;100590.78;;;15.48;100.00
60258;BME280;46115;44.484;11.314;2023-05-19T10:32:09;100590.38;;;15.14;100.00
60258;BME280;46115;44.484;11.314;2023-05-19T10:36:24;100589.31;;;14.90;100.00
60258;BME280;46115;44.484;11.314;2023-05-19T10:40:33;100588.44;;;14.89;100.00
60258;BME280;46115;44.484;11.314;2023-05-19T10:44:49;100583.59;;;14.96;100.00
60258;BME280;46115;44.484;11.314;2023-05-19T10:48:54;100599.06;;;15.04;100.00
60258;BME280;46115;44.484;11.314;2023-05-19T10:52:57;100597.75;;;15.23;100.00
60258;BME280;46115;44.484;11.314;2023-05-19T10:57:00;100596.69;;;14.72;100.00
60258;BME280;46115;44.484;11.314;2023-05-19T11:01:07;100586.94;;;14.85;100.00
60258;BME280;46115;44.484;11.314;2023-05-19T11:05:12;100595.31;;;14.93;100.00
60258;BME280;46115;44.484;11.314;2023-05-19T11:09:17;100589.50;;;14.87;100.00
60258;BME280;46115;44.484;11.314;2023-05-19T11:13:20;100592.78;;;15.05;100.00
60258;BME280;46115;44.484;11.314;2023-05-19T11:17:24;100567.00;;;14.78;100.00
60258;BME280;46115;44.484;11.314;2023-05-19T11:21:40;100587.88;;;14.98;100.00
60258;BME280;46115;44.484;11.314;2023-05-19T11:25:44;100576.84;;;15.17;100.00
60258;BME280;46115;44.484;11.314;2023-05-19T11:29:48;100585.75;;;15.04;100.00
60258;BME280;46115;44.484;11.314;2023-05-19T11:33:53;100591.66;;;15.21;100.00
60258;BME280;46115;44.484;11.314;2023-05-19T11:37:55;100582.09;;;14.92;100.00
60258;BME280;46115;44.484;11.314;2023-05-19T11:41:57;100562.59;;;14.91;100.00
60258;BME280;46115;44.484;11.314;2023-05-19T11:46:00;100533.41;;;15.17;100.00
60258;BME280;46115;44.484;11.314;2023-05-19T11:50:05;100578.66;;;14.90;100.00
60258;BME280;46115;44.484;11.314;2023-05-19T11:54:08;100564.25;;;15.07;100.00
60258;BME280;46115;44.484;11.314;2023-05-19T11:58:11;100564.34;;;15.32;100.00
60258;BME280;46115;44.484;11.314;2023-05-19T12:02:18;100561.69;;;15.45;100.00
60258;BME280;46115;44.484;11.314;2023-05-19T12:06:22;100569.25;;;15.38;100.00
60258;BME280;46115;44.484;11.314;2023-05-19T12:10:28;100561.63;;;15.19;100.00
60258;BME280;46115;44.484;11.314;2023-05-19T12:14:30;100567.56;;;15.50;100.00
60258;BME280;46115;44.484;11.314;2023-05-19T12:18:35;100564.97;;;15.63;100.00
60258;BME280;46115;44.484;11.314;2023-05-19T12:22:39;100567.09;;;15.31;100.00
60258;BME280;46115;44.484;11.314;2023-05-19T12:26:43;100562.44;;;15.47;100.00
60258;BME280;46115;44.484;11.314;2023-05-19T12:30:48;100561.38;;;15.49;100.00
60258;BME280;46115;44.484;11.314;2023-05-19T12:34:54;100564.34;;;15.32;100.00
60258;BME280;46115;44.484;11.314;2023-05-19T12:38:58;100566.09;;;15.58;100.00
60258;BME280;46115;44.484;11.314;2023-05-19T12:43:01;100557.66;;;15.52;100.00
60258;BME280;46115;44.484;11.314;2023-05-19T12:47:04;100558.38;;;15.28;100.00
60258;BME280;46115;44.484;11.314;2023-05-19T12:51:07;100556.16;;;15.08;100.00
60258;BME280;46115;44.484;11.314;2023-05-19T12:55:11;100550.97;;;15.19;100.00
60258;BME280;46115;44.484;11.314;2023-05-19T12:59:20;100541.66;;;15.52;100.00
60258;BME280;46115;44.484;11.314;2023-05-19T13:03:22;100551.38;;;15.53;100.00
60258;BME280;46115;44.484;11.314;2023-05-19T13:07:25;100540.06;;;15.49;100.00
60258;BME280;46115;44.484;11.314;2023-05-19T13:11:29;100546.56;;;15.33;100.00
60258;BME280;46115;44.484;11.314;2023-05-19T13:15:32;100541.19;;;15.72;100.00
60258;BME280;46115;44.484;11.314;2023-05-19T13:19:36;100542.38;;;15.68;100.00
60258;BME280;46115;44.484;11.314;2023-05-19T13:23:38;100538.41;;;15.86;100.00
60258;BME280;46115;44.484;11.314;2023-05-19T13:27:43;100515.66;;;15.55;100.00
60258;BME280;46115;44.484;11.314;2023-05-19T13:31:46;100538.78;;;15.55;100.00
60258;BME280;46115;44.484;11.314;2023-05-19T13:35:48;100530.16;;;15.51;100.00
60258;BME280;46115;44.484;11.314;2023-05-19T13:39:51;100518.50;;;15.67;100.00
60258;BME280;46115;44.484;11.314;2023-05-19T13:43:56;100526.78;;;15.87;100.00
60258;BME280;46115;44.484;11.314;2023-05-19T13:47:59;100525.69;;;16.15;100.00
60258;BME280;46115;44.484;11.314;2023-05-19T13:52:02;100530.63;;;16.09;100.00
60258;BME280;46115;44.484;11.314;2023-05-19T13:56:05;100520.88;;;15.32;100.00
60258;BME280;46115;44.484;11.314;2023-05-19T14:00:09;100537.28;;;15.38;100.00
60258;BME280;46115;44.484;11.314;2023-05-19T14:04:16;100514.97;;;15.66;100.00
60258;BME280;46115;44.484;11.314;2023-05-19T14:08:19;100516.16;;;15.62;100.00
60258;BME280;46115;44.484;11.314;2023-05-19T14:12:22;100517.50;;;15.93;100.00
60258;BME280;46115;44.484;11.314;2023-05-19T14:16:26;100513.09;;;16.17;100.00
60258;BME280;46115;44.484;11.314;2023-05-19T14:20:28;100479.31;;;15.42;100.00
60258;BME280;46115;44.484;11.314;2023-05-19T14:24:31;100483.84;;;15.79;100.00
60258;BME280;46115;44.484;11.314;2023-05-19T14:28:33;100501.72;;;16.03;100.00
60258;BME280;46115;44.484;11.314;2023-05-19T14:32:37;100472.66;;;15.62;100.00
60258;BME280;46115;44.484;11.314;2023-05-19T14:36:40;100491.84;;;15.67;100.00
60258;BME280;46115;44.484;11.314;2023-05-19T14:40:43;100492.81;;;15.66;100.00
60258;BME280;46115;44.484;11.314;2023-05-19T14:44:45;100488.66;;;16.36;100.00
60258;BME280;46115;44.484;11.314;2023-05-19T14:48:49;100492.44;;;15.96;97.11
60258;BME280;46115;44.484;11.314;2023-05-19T14:52:51;100498.09;;;16.04;96.60
60258;BME280;46115;44.484;11.314;2023-05-19T14:56:54;100490.88;;;15.80;100.00
60258;BME280;46115;44.484;11.314;2023-05-19T15:00:57;100477.97;;;15.74;100.00
60258;BME280;46115;44.484;11.314;2023-05-19T15:05:01;100477.97;;;15.74;100.00
60258;BME280;46115;44.484;11.314;2023-05-19T15:09:04;100480.41;;;16.03;100.00
60258;BME280;46115;44.484;11.314;2023-05-19T15:13:06;100494.25;;;16.08;99.24
60258;BME280;46115;44.484;11.314;2023-05-19T15:17:09;100474.63;;;16.09;99.80
60258;BME280;46115;44.484;11.314;2023-05-19T15:21:12;100471.06;;;16.21;97.67
60258;BME280;46115;44.484;11.314;2023-05-19T15:25:15;100467.81;;;15.92;98.10
60258;BME280;46115;44.484;11.314;2023-05-19T15:29:17;100464.38;;;16.15;95.65
60258;BME280;46115;44.484;11.314;2023-05-19T15:33:20;100463.34;;;15.93;93.29
60258;BME280;46115;44.484;11.314;2023-05-19T15:37:24;100457.16;;;15.92;94.60
60258;BME280;46115;44.484;11.314;2023-05-19T15:41:26;100450.47;;;15.74;94.66
60258;BME280;46115;44.484;11.314;2023-05-19T15:45:29;100447.28;;;15.69;96.41
60258;BME280;46115;44.484;11.314;2023-05-19T15:49:31;100445.16;;;15.74;96.88
60258;BME280;46115;44.484;11.314;2023-05-19T15:53:35;100445.00;;;16.01;96.69
60258;BME280;46115;44.484;11.314;2023-05-19T15:57:37;100453.13;;;15.99;94.14
60258;BME280;46115;44.484;11.314;2023-05-19T16:01:40;100449.72;;;15.84;95.82
60258;BME280;46115;44.484;11.314;2023-05-19T16:05:43;100445.34;;;16.20;94.27
60258;BME280;46115;44.484;11.314;2023-05-19T16:09:47;100453.34;;;15.96;93.69
60258;BME280;46115;44.484;11.314;2023-05-19T16:13:50;100437.53;;;15.93;92.94
60258;BME280;46115;44.484;11.314;2023-05-19T16:17:52;100452.28;;;15.60;92.12
60258;BME280;46115;44.484;11.314;2023-05-19T16:21:55;100454.00;;;15.62;92.50
60258;BME280;46115;44.484;11.314;2023-05-19T16:25:59;100454.19;;;15.97;91.95
60258;BME280;46115;44.484;11.314;2023-05-19T16:30:01;100450.13;;;16.04;90.56
60258;BME280;46115;44.484;11.314;2023-05-19T16:34:05;100440.00;;;15.96;91.59
60258;BME280;46115;44.484;11.314;2023-05-19T16:38:08;100434.13;;;15.53;91.59
60258;BME280;46115;44.484;11.314;2023-05-19T16:42:12;100448.66;;;15.74;92.58
60258;BME280;46115;44.484;11.314;2023-05-19T16:46:14;100447.72;;;15.63;95.17
60258;BME280;46115;44.484;11.314;2023-05-19T16:50:17;100435.41;;;15.98;94.04
60258;BME280;46115;44.484;11.314;2023-05-19T16:54:19;100444.69;;;16.29;91.40
60258;BME280;46115;44.484;11.314;2023-05-19T16:58:24;100434.50;;;15.74;94.68
60258;BME280;46115;44.484;11.314;2023-05-19T17:02:27;100448.41;;;16.03;92.98
60258;BME280;46115;44.484;11.314;2023-05-19T17:06:29;100447.66;;;15.88;93.46
60258;BME280;46115;44.484;11.314;2023-05-19T17:10:32;100443.22;;;15.38;97.82
60258;BME280;46115;44.484;11.314;2023-05-19T17:14:36;100433.13;;;15.68;95.36
60258;BME280;46115;44.484;11.314;2023-05-19T17:18:38;100405.63;;;15.68;95.11
60258;BME280;46115;44.484;11.314;2023-05-19T17:22:40;100445.19;;;16.10;94.83
60258;BME280;46115;44.484;11.314;2023-05-19T17:26:43;100442.75;;;15.56;100.00
60258;BME280;46115;44.484;11.314;2023-05-19T17:30:47;100444.06;;;15.51;100.00
60258;BME280;46115;44.484;11.314;2023-05-19T17:34:50;100458.03;;;15.80;99.81
60258;BME280;46115;44.484;11.314;2023-05-19T17:38:52;100446.50;;;15.92;98.44
60258;BME280;46115;44.484;11.314;2023-05-19T17:42:54;100451.13;;;15.65;100.00
60258;BME280;46115;44.484;11.314;2023-05-19T17:46:58;100446.72;;;15.38;100.00
60258;BME280;46115;44.484;11.314;2023-05-19T17:51:02;100450.00;;;15.16;100.00
60258;BME280;46115;44.484;11.314;2023-05-19T17:55:06;100443.84;;;15.41;100.00
60258;BME280;46115;44.484;11.314;2023-05-19T17:59:10;100446.72;;;15.89;100.00
60258;BME280;46115;44.484;11.314;2023-05-19T18:03:14;100444.41;;;15.72;100.00
60258;BME280;46115;44.484;11.314;2023-05-19T18:07:17;100427.44;;;15.60;100.00
60258;BME280;46115;44.484;11.314;2023-05-19T18:11:20;100450.56;;;15.85;100.00
60258;BME280;46115;44.484;11.314;2023-05-19T18:15:23;100437.22;;;15.47;100.00
60258;BME280;46115;44.484;11.314;2023-05-19T18:19:27;100448.22;;;15.80;100.00
60258;BME280;46115;44.484;11.314;2023-05-19T18:23:29;100445.13;;;15.48;100.00
60258;BME280;46115;44.484;11.314;2023-05-19T18:27:32;100455.06;;;15.59;100.00
60258;BME280;46115;44.484;11.314;2023-05-19T18:31:34;100451.00;;;15.79;100.00
60258;BME280;46115;44.484;11.314;2023-05-19T18:35:38;100441.50;;;15.37;100.00
60258;BME280;46115;44.484;11.314;2023-05-19T18:39:40;100452.47;;;15.45;100.00
60258;BME280;46115;44.484;11.314;2023-05-19T18:43:43;100450.56;;;15.47;100.00
60258;BME280;46115;44.484;11.314;2023-05-19T18:47:48;100457.16;;;15.54;100.00
60258;BME280;46115;44.484;11.314;2023-05-19T18:51:52;100455.56;;;15.39;100.00
60258;BME280;46115;44.484;11.314;2023-05-19T18:55:54;100449.22;;;15.67;100.00
60258;BME280;46115;44.484;11.314;2023-05-19T18:59:57;100459.06;;;15.52;100.00
60258;BME280;46115;44.484;11.314;2023-05-19T19:03:59;100455.66;;;15.50;100.00
60258;BME280;46115;44.484;11.314;2023-05-19T19:08:04;100455.25;;;15.43;100.00
60258;BME280;46115;44.484;11.314;2023-05-19T19:12:06;100461.56;;;15.80;100.00
60258;BME280;46115;44.484;11.314;2023-05-19T19:16:09;100467.22;;;15.63;100.00
60258;BME280;46115;44.484;11.314;2023-05-19T19:20:12;100451.81;;;15.54;100.00
60258;BME280;46115;44.484;11.314;2023-05-19T19:24:16;100476.66;;;15.93;100.00
60258;BME280;46115;44.484;11.314;2023-05-19T19:28:18;100466.25;;;16.26;100.00
60258;BME280;46115;44.484;11.314;2023-05-19T22:06:08;100496.25;;;15.28;100.00
60258;BME280;46115;44.484;11.314;2023-05-19T22:10:10;100487.41;;;15.27;100.00
60258;BME280;46115;44.484;11.314;2023-05-19T22:14:13;100480.88;;;15.06;100.00
60258;BME280;46115;44.484;11.314;2023-05-19T22:18:15;100482.31;;;15.50;100.00
60258;BME280;46115;44.484;11.314;2023-05-19T22:22:19;100483.81;;;15.54;100.00
60258;BME280;46115;44.484;11.314;2023-05-19T22:26:21;100485.03;;;15.23;100.00
60258;BME280;46115;44.484;11.314;2023-05-19T22:30:23;100481.75;;;15.19;100.00
60258;BME280;46115;44.484;11.314;2023-05-19T22:34:26;100474.84;;;15.29;100.00
60258;BME280;46115;44.484;11.314;2023-05-19T22:38:30;100475.66;;;15.17;100.00
60258;BME280;46115;44.484;11.314;2023-05-19T22:42:32;100478.03;;;15.47;100.00
60258;BME280;46115;44.484;11.314;2023-05-19T22:46:34;100476.84;;;15.13;100.00
60258;BME280;46115;44.484;11.314;2023-05-19T22:50:37;100472.91;;;15.19;100.00
60258;BME280;46115;44.484;11.314;2023-05-19T22:54:40;100474.97;;;15.28;100.00
60258;BME280;46115;44.484;11.314;2023-05-19T22:58:43;100475.50;;;15.46;100.00
60258;BME280;46115;44.484;11.314;2023-05-19T23:02:45;100474.16;;;15.13;100.00
60258;BME280;46115;44.484;11.314;2023-05-19T23:06:48;100477.50;;;14.90;100.00
60258;BME280;46115;44.484;11.314;2023-05-19T23:10:51;100472.88;;;14.93;100.00
60258;BME280;46115;44.484;11.314;2023-05-19T23:14:54;100470.50;;;14.89;100.00
60258;BME280;46115;44.484;11.314;2023-05-19T23:18:56;100464.31;;;14.88;100.00
60258;BME280;46115;44.484;11.314;2023-05-19T23:22:58;100453.19;;;14.96;100.00
60258;BME280;46115;44.484;11.314;2023-05-19T23:27:02;100437.22;;;14.96;100.00